ěÝzenÝ letovÚho provozu ╚eskÚ republiky
Letiste: LKKB Aktualizace: 07.07.2020 16:01:26  UTC
 METAR LKKB 07.07. 16:00 ...
METAR LKKB 071600Z 28005KT 250V320 CAVOK 19/05 Q1018 NOSIG RMK BLU BLU=
 TAF LKKB 07.07. 11:00 ...
TAF LKKB 071100Z 0712/0812 27008KT CAVOK      TEMPO 0716/0800 VRB02KT      BECMG 0800/0803 23005KT BKN040      TEMPO 0810/0812 8000 RA SCT020 BKN030=